Time;durP1;ratioP1;P1;durP2;ratioP2;P2;SDS_P1;SDS_P2;PMS_P1;PMS_P2;Temp;Humidity;BMP_temperature;BMP_pressure;BME280_temperature;BME280_humidity;BME280_pressure;Samples;Min_cycle;Max_cycle;Signal;HPM_P1;HPM_P2
2022/12/30 00:00:46;;;;;;;64.70;30.55;;;;;;;4.19;75.87;100689.78;3172325;28;20393;-69
2022/12/30 00:02:18;;;;;;;62.92;30.17;;;;;;;4.10;75.99;100677.81;3166985;28;20146;-69
2022/12/30 00:03:50;;;;;;;73.13;31.88;;;;;;;4.12;76.03;100682.97;3163522;28;20124;-69
2022/12/30 00:05:22;;;;;;;64.23;29.63;;;;;;;3.99;76.25;100679.56;3168600;28;20066;-68
2022/12/30 00:06:55;;;;;;;69.97;30.58;;;;;;;3.97;76.23;100678.72;3161780;28;20052;-69
2022/12/30 00:10:16;;;;;;;73.22;31.30;;;;;;;3.86;76.61;100690.78;3163217;28;20062;-69
2022/12/30 00:11:48;;;;;;;67.07;30.73;;;;;;;3.79;76.55;100679.66;3169172;28;20063;-69
2022/12/30 00:33:48;;;;;;;83.88;36.17;;;;;;;3.51;77.50;100673.72;3166897;28;20052;-69
2022/12/30 00:35:21;;;;;;;88.00;37.25;;;;;;;3.54;77.60;100676.28;3161039;28;20048;-69
2022/12/30 00:36:53;;;;;;;82.85;35.85;;;;;;;3.56;77.54;100672.00;3155860;28;20140;-69
2022/12/30 00:38:26;;;;;;;85.15;36.40;;;;;;;3.59;77.49;100673.72;3168281;28;20044;-68
2022/12/30 00:39:57;;;;;;;77.13;35.00;;;;;;;3.62;77.52;100671.13;3162807;28;20440;-68
2022/12/30 00:43:18;;;;;;;81.93;34.80;;;;;;;3.19;77.05;100600.00;3167676;28;20039;-68
2022/12/30 00:44:50;;;;;;;76.80;33.90;;;;;;;3.60;77.02;100659.97;3163578;28;20051;-68
2022/12/30 00:46:24;;;;;;;76.93;35.70;;;;;;;3.71;77.12;100670.25;3166126;28;20116;-69
2022/12/30 00:47:55;;;;;;;76.28;34.08;;;;;;;3.72;77.03;100671.94;3159770;28;20056;-69
2022/12/30 00:56:47;;;;;;;74.05;34.45;;;;;;;3.71;76.72;100678.81;3148416;28;20052;-70
2022/12/30 00:58:19;;;;;;;82.53;35.58;;;;;;;3.67;76.67;100665.94;3157481;28;20126;-69
2022/12/30 00:59:50;;;;;;;77.57;34.95;;;;;;;3.73;76.59;100673.69;3169830;28;20084;-69
2022/12/30 01:01:21;;;;;;;79.43;35.70;;;;;;;3.75;76.61;100674.50;3160515;28;20048;-69
2022/12/30 01:02:54;;;;;;;85.30;35.33;;;;;;;3.71;76.49;100665.09;3168182;28;20047;-69
2022/12/30 01:04:26;;;;;;;89.32;36.13;;;;;;;3.77;76.53;100672.78;3171017;28;20043;-69
2022/12/30 01:05:58;;;;;;;80.93;36.65;;;;;;;3.77;76.47;100671.06;3171241;28;20048;-69
2022/12/30 01:07:29;;;;;;;83.82;36.00;;;;;;;3.73;76.28;100677.09;3166668;28;20059;-69
2022/12/30 01:09:01;;;;;;;75.55;34.88;;;;;;;3.79;76.34;100679.66;3171554;28;20043;-69
2022/12/30 01:10:33;;;;;;;84.15;35.28;;;;;;;3.80;76.38;100676.22;3164585;28;20100;-69
2022/12/30 01:12:09;;;;;;;78.93;35.03;;;;;;;3.80;76.32;100683.09;3164926;28;20520;-69
2022/12/30 01:13:41;;;;;;;73.07;34.42;;;;;;;3.79;76.22;100674.50;3165453;28;20056;-69
2022/12/30 01:15:13;;;;;;;75.10;34.38;;;;;;;3.76;76.13;100664.22;3158615;28;20052;-69
2022/12/30 01:16:45;;;;;;;79.95;34.13;;;;;;;3.80;76.11;100673.63;3154802;28;20081;-68
2022/12/30 01:18:17;;;;;;;76.43;34.35;;;;;;;3.80;76.11;100665.91;3162358;28;20585;-68
2022/12/30 01:19:49;;;;;;;72.45;34.60;;;;;;;3.80;76.01;100671.06;3168017;28;20109;-69
2022/12/30 01:21:21;;;;;;;72.63;34.78;;;;;;;3.76;75.96;100669.38;3160895;28;20052;-69
2022/12/30 01:22:51;;;;;;;79.57;35.05;;;;;;;3.79;75.89;100676.22;3171328;28;20060;-68
2022/12/30 01:24:23;;;;;;;74.10;34.53;;;;;;;3.79;75.96;100664.19;3170819;28;20131;-68
2022/12/30 01:26:00;;;;;;;76.35;34.70;;;;;;;3.80;75.94;100667.63;3158360;28;20417;-68
2022/12/30 01:27:32;;;;;;;80.45;36.08;;;;;;;3.79;75.95;100674.50;3158634;28;20056;-68
2022/12/30 01:29:04;;;;;;;75.70;34.40;;;;;;;3.79;75.82;100676.22;3157872;28;20414;-68
2022/12/30 01:30:35;;;;;;;76.57;35.65;;;;;;;3.78;75.81;100671.91;3157294;28;20052;-69
2022/12/30 01:32:09;;;;;;;77.18;35.75;;;;;;;3.77;75.87;100668.50;3156866;28;20448;-68
2022/12/30 01:33:41;;;;;;;75.85;35.28;;;;;;;3.77;75.93;100668.50;3156194;28;20517;-68
2022/12/30 01:35:13;;;;;;;86.43;34.85;;;;;;;3.72;75.98;100661.63;3158508;28;20048;-69
2022/12/30 01:36:45;;;;;;;82.30;35.80;;;;;;;3.64;76.07;100651.38;3157993;28;20052;-68
2022/12/30 01:38:17;;;;;;;74.10;35.60;;;;;;;3.76;76.01;100656.50;3166232;28;20062;-68
2022/12/30 01:39:49;;;;;;;76.53;34.10;;;;;;;3.75;76.05;100657.31;3171021;28;20116;-71
2022/12/30 01:41:22;;;;;;;79.40;35.67;;;;;;;3.78;75.91;100659.03;3164306;28;20414;-68
2022/12/30 01:42:54;;;;;;;73.53;34.13;;;;;;;3.76;76.07;100663.38;3164661;28;20043;-68
2022/12/30 01:44:56;;;;;;;84.63;36.28;;;;;;;3.68;75.85;100647.91;3170844;28;20047;-69
2022/12/30 01:46:31;;;;;;;79.78;35.33;;;;;;;3.65;76.01;100643.63;3153862;28;20040;-69
2022/12/30 01:48:09;;;;;;;75.95;35.53;;;;;;;3.70;76.03;100646.22;3166409;28;20052;-68
2022/12/30 01:49:45;;;;;;;79.43;33.90;;;;;;;3.71;76.01;100644.47;3162959;28;20114;-68
2022/12/30 01:51:21;;;;;;;78.32;33.45;;;;;;;3.71;76.09;100649.63;3161686;28;20044;-69
2022/12/30 01:52:58;;;;;;;78.25;34.83;;;;;;;3.70;76.08;100645.31;3165871;28;20051;-68
2022/12/30 01:54:30;;;;;;;79.95;35.20;;;;;;;3.70;76.17;100647.91;3163343;28;20124;-68
2022/12/30 01:56:06;;;;;;;77.28;34.95;;;;;;;3.70;76.02;100650.47;3164636;28;20070;-68
2022/12/30 01:57:43;;;;;;;72.78;33.45;;;;;;;3.70;76.05;100647.91;3166232;28;20047;-68
2022/12/30 01:59:17;;;;;;;70.03;34.35;;;;;;;3.31;76.11;100590.50;3161283;28;20048;-69
2022/12/30 02:00:49;;;;;;;78.13;34.55;;;;;;;3.69;76.04;100648.78;3158000;28;20048;-68
2022/12/30 02:02:21;;;;;;;72.50;33.92;;;;;;;3.64;75.93;100641.06;3162079;28;20187;-71
2022/12/30 02:04:01;;;;;;;75.20;34.67;;;;;;;3.70;76.00;100645.31;3162626;28;20116;-68
2022/12/30 02:05:37;;;;;;;74.28;32.38;;;;;;;3.70;76.03;100642.75;3165215;28;20321;-68
2022/12/30 02:07:14;;;;;;;79.53;34.20;;;;;;;3.71;76.01;100639.31;3162578;28;20051;-68
2022/12/30 02:08:46;;;;;;;80.20;35.10;;;;;;;3.65;75.85;100633.31;3165958;28;20377;-68
2022/12/30 02:10:19;;;;;;;82.47;34.58;;;;;;;3.69;75.98;100646.19;3162157;28;20054;-68
2022/12/30 02:11:51;;;;;;;72.60;35.33;;;;;;;3.65;75.94;100637.63;3166885;28;20082;-68
2022/12/30 02:13:25;;;;;;;80.63;35.28;;;;;;;3.65;76.00;100629.91;3157616;28;20048;-69
2022/12/30 02:14:57;;;;;;;78.07;33.85;;;;;;;3.57;75.86;100611.88;3159185;28;20079;-68
2022/12/30 02:16:45;;;;;;;89.70;37.25;;;;;;;3.63;75.79;100632.47;3164408;28;20516;-68
2022/12/30 02:18:26;;;;;;;78.03;34.65;;;;;;;3.60;75.66;100627.31;3157928;28;20131;-69
2022/12/30 02:20:39;;;;;;;83.53;35.10;;;;;;;3.57;75.73;100626.50;3158000;28;20105;-68
2022/12/30 02:22:20;;;;;;;86.03;37.88;;;;;;;3.55;75.78;100629.09;3166538;28;20501;-68
2022/12/30 02:24:16;;;;;;;79.22;36.63;;;;;;;3.55;75.74;100628.19;3170516;28;20162;-69
2022/12/30 02:26:25;;;;;;;80.15;35.92;;;;;;;3.48;75.70;100623.94;3158218;28;20355;-68
2022/12/30 02:28:28;;;;;;;79.78;33.65;;;;;;;3.48;75.71;100634.25;3148248;28;20203;-69
2022/12/30 02:30:15;;;;;;;77.38;36.47;;;;;;;3.46;75.72;100625.66;3155446;28;20040;-68
2022/12/30 02:31:56;;;;;;;82.05;35.00;;;;;;;3.28;75.79;100603.38;3165673;28;20082;-68
2022/12/30 02:33:34;;;;;;;80.28;37.15;;;;;;;3.41;75.98;100626.53;3170360;28;20081;-68
2022/12/30 02:35:15;;;;;;;84.85;36.40;;;;;;;3.35;75.97;100623.13;3170318;28;20052;-68
2022/12/30 02:37:00;;;;;;;84.30;38.00;;;;;;;3.28;76.06;100630.00;3161054;28;20055;-68
2022/12/30 02:38:41;;;;;;;80.60;35.72;;;;;;;3.14;76.22;100624.03;3157451;28;20052;-68
2022/12/30 02:40:17;;;;;;;80.00;36.00;;;;;;;3.18;76.48;100629.16;3168554;28;20538;-68
2022/12/30 02:45:42;;;;;;;79.55;35.67;;;;;;;3.12;76.53;100641.19;3147567;28;20072;-68
2022/12/30 02:47:22;;;;;;;75.05;35.70;;;;;;;3.13;76.55;100636.03;3170366;28;20059;-68
2022/12/30 02:48:57;;;;;;;80.47;36.95;;;;;;;3.14;76.52;100640.31;3168708;28;20043;-69
2022/12/30 02:52:22;;;;;;;82.65;34.95;;;;;;;3.12;76.46;100639.47;3160731;28;20477;-68
2022/12/30 02:53:54;;;;;;;82.82;37.20;;;;;;;2.99;76.30;100606.91;3170180;28;20096;-70
2022/12/30 02:55:26;;;;;;;73.68;35.92;;;;;;;3.17;76.20;100629.19;3168305;28;20139;-69
2022/12/30 02:56:57;;;;;;;82.80;36.47;;;;;;;3.18;76.21;100647.19;3158339;28;20063;-70
2022/12/30 02:58:32;;;;;;;81.35;36.67;;;;;;;3.12;76.20;100626.59;3165454;28;20054;-70
2022/12/30 03:04:10;;;;;;;79.68;35.00;;;;;;;3.03;76.41;100636.06;3155796;28;20139;-70
2022/12/30 03:05:53;;;;;;;79.07;35.33;;;;;;;2.31;76.61;100528.94;3163344;28;20106;-72
2022/12/30 03:07:33;;;;;;;72.65;33.72;;;;;;;2.96;76.83;100633.50;3164758;28;20122;-69
2022/12/30 03:09:13;;;;;;;78.00;34.03;;;;;;;2.90;77.05;100624.94;3162656;28;20432;-70
2022/12/30 03:12:51;;;;;;;79.95;34.75;;;;;;;2.86;77.19;100630.91;3159037;28;20060;-68
2022/12/30 03:14:27;;;;;;;75.53;33.03;;;;;;;2.89;77.33;100636.91;3157356;28;20055;-69
2022/12/30 03:16:06;;;;;;;81.50;36.60;;;;;;;2.35;77.19;100566.63;3156897;28;20059;-68
2022/12/30 03:17:41;;;;;;;75.07;33.42;;;;;;;2.79;77.22;100621.50;3157372;28;20101;-69
2022/12/30 03:19:17;;;;;;;77.57;33.58;;;;;;;2.88;77.15;100637.78;3157168;28;20048;-68
2022/12/30 03:20:50;;;;;;;71.03;31.55;;;;;;;2.79;77.32;100636.94;3168028;28;20051;-68
2022/12/30 03:28:01;;;;;;;67.95;31.65;;;;;;;2.86;77.27;100654.06;3162656;28;20059;-68
2022/12/30 03:29:39;;;;;;;61.33;29.20;;;;;;;2.87;77.15;100659.22;3159873;28;20374;-69
2022/12/30 03:31:13;;;;;;;64.22;30.23;;;;;;;2.88;77.23;100665.22;3169667;28;20051;-69
2022/12/30 03:32:46;;;;;;;71.25;30.13;;;;;;;2.83;77.20;100649.75;3167053;28;20549;-68
2022/12/30 03:34:19;;;;;;;62.95;28.83;;;;;;;2.87;77.13;100664.38;3156796;28;20048;-69
2022/12/30 03:35:56;;;;;;;58.80;27.60;;;;;;;2.87;77.18;100661.78;3158224;28;20052;-68
2022/12/30 03:37:33;;;;;;;60.78;29.33;;;;;;;2.85;77.01;100649.78;3163193;28;20062;-69
2022/12/30 03:39:08;;;;;;;61.60;27.75;;;;;;;2.89;77.08;100660.06;3162996;28;20454;-69
2022/12/30 03:40:43;;;;;;;65.70;28.90;;;;;;;2.74;77.05;100634.34;3157554;28;20052;-69
2022/12/30 03:42:16;;;;;;;63.63;28.73;;;;;;;2.84;76.98;100648.94;3165536;28;20044;-69
2022/12/30 03:43:50;;;;;;;56.35;26.42;;;;;;;2.85;77.07;100666.06;3169648;28;20120;-69
2022/12/30 03:45:22;;;;;;;60.92;27.65;;;;;;;2.84;77.15;100664.38;3169748;28;20693;-67
2022/12/30 03:46:54;;;;;;;60.55;28.67;;;;;;;2.84;77.09;100659.22;3157453;28;20052;-68
2022/12/30 03:48:25;;;;;;;54.28;26.02;;;;;;;2.84;77.07;100663.47;3156545;28;20482;-68
2022/12/30 03:49:58;;;;;;;56.83;26.90;;;;;;;2.80;77.19;100662.63;3157040;28;20055;-68
2022/12/30 03:51:29;;;;;;;60.67;26.85;;;;;;;2.78;77.27;100666.94;3156869;28;20491;-68
2022/12/30 03:53:01;;;;;;;56.50;26.98;;;;;;;2.77;77.11;100672.91;3165887;28;20055;-68
2022/12/30 03:54:33;;;;;;;53.95;25.52;;;;;;;2.71;77.32;100663.47;3169580;28;20051;-68
2022/12/30 03:56:05;;;;;;;56.83;26.45;;;;;;;2.75;77.29;100666.91;3157986;28;20117;-68
2022/12/30 03:57:37;;;;;;;62.90;27.38;;;;;;;2.69;77.28;100665.22;3152583;28;20063;-69
2022/12/30 03:59:08;;;;;;;63.33;26.70;;;;;;;2.71;77.37;100665.19;3159985;28;20063;-69
2022/12/30 04:00:39;;;;;;;55.08;26.65;;;;;;;2.67;77.58;100673.78;3164720;28;20052;-68
2022/12/30 04:02:11;;;;;;;60.92;26.67;;;;;;;2.66;77.44;100670.34;3156939;28;20048;-68
2022/12/30 04:03:42;;;;;;;61.25;26.40;;;;;;;2.67;77.53;100682.34;3160369;28;20051;-67
2022/12/30 04:05:16;;;;;;;68.25;27.30;;;;;;;2.63;77.40;100665.22;3167148;28;20047;-68
2022/12/30 04:06:47;;;;;;;;;;;;;;;2.63;77.34;100679.75;3159089;28;20048;-69
2022/12/30 04:08:19;;;;;;;51.42;26.00;;;;;;;2.64;77.25;100678.91;3169453;28;19931;-69
2022/12/30 04:09:51;;;;;;;62.80;26.60;;;;;;;2.65;77.27;100675.47;3168956;28;20096;-68
2022/12/30 04:11:22;;;;;;;55.72;26.52;;;;;;;2.67;77.13;100677.22;3157098;28;20073;-68
2022/12/30 04:12:54;;;;;;;59.28;28.17;;;;;;;2.70;77.20;100671.22;3169398;28;20047;-69
2022/12/30 04:14:26;;;;;;;60.72;27.88;;;;;;;2.70;77.25;100671.22;3157173;28;20101;-69
2022/12/30 04:15:58;;;;;;;62.92;28.88;;;;;;;2.64;77.11;100668.63;3156686;28;20079;-69
2022/12/30 04:17:30;;;;;;;69.00;29.35;;;;;;;2.68;77.17;100673.75;3156725;28;20048;-69
2022/12/30 04:19:02;;;;;;;57.20;28.45;;;;;;;2.66;77.23;100672.94;3166502;28;20058;-68
2022/12/30 04:20:35;;;;;;;57.95;28.83;;;;;;;2.65;77.25;100678.06;3169169;28;20421;-69
2022/12/30 04:22:07;;;;;;;59.30;28.13;;;;;;;2.64;77.41;100679.78;3166379;28;20124;-69
2022/12/30 04:23:39;;;;;;;62.20;27.45;;;;;;;2.59;77.25;100667.75;3161269;28;20418;-69
2022/12/30 04:25:11;;;;;;;59.40;27.42;;;;;;;2.65;77.36;100678.06;3163925;28;20079;-69
2022/12/30 04:26:43;;;;;;;59.58;29.05;;;;;;;2.50;77.25;100648.88;3158679;28;20140;-69
2022/12/30 04:28:14;;;;;;;61.38;28.05;;;;;;;2.33;77.23;100630.00;3156920;28;20437;-69
2022/12/30 04:29:46;;;;;;;63.17;28.15;;;;;;;2.64;77.11;100671.22;3161045;28;20040;-69
2022/12/30 04:31:18;;;;;;;58.35;27.25;;;;;;;2.61;76.95;100669.47;3165502;28;20068;-69
2022/12/30 04:32:49;;;;;;;56.53;27.65;;;;;;;2.69;77.06;100675.50;3156433;28;20056;-68
2022/12/30 04:34:21;;;;;;;57.60;26.88;;;;;;;2.70;77.04;100671.22;3158725;28;20486;-69
2022/12/30 04:35:54;;;;;;;66.10;28.83;;;;;;;2.69;77.02;100670.34;3167340;28;20059;-69
2022/12/30 04:37:26;;;;;;;58.75;27.63;;;;;;;2.65;77.11;100660.06;3157876;28;20044;-68
2022/12/30 04:38:58;;;;;;;57.33;27.70;;;;;;;2.68;76.92;100668.63;3171717;28;20055;-69
2022/12/30 04:40:29;;;;;;;63.63;27.35;;;;;;;2.68;76.85;100673.75;3168064;28;20093;-68
2022/12/30 04:42:01;;;;;;;60.58;28.52;;;;;;;2.68;76.90;100668.63;3171369;28;20536;-68
2022/12/30 04:43:33;;;;;;;56.65;27.88;;;;;;;2.69;76.81;100669.47;3168427;28;20051;-69
2022/12/30 04:45:05;;;;;;;57.97;27.25;;;;;;;2.68;76.82;100678.91;3158970;28;20051;-69
2022/12/30 04:46:37;;;;;;;58.73;27.70;;;;;;;2.63;76.84;100675.50;3158657;28;20056;-69
2022/12/30 04:48:09;;;;;;;53.33;27.60;;;;;;;2.67;76.75;100673.78;3167637;28;20313;-69
2022/12/30 04:49:41;;;;;;;57.72;28.88;;;;;;;2.64;76.87;100673.78;3171643;28;20055;-69
2022/12/30 04:51:14;;;;;;;63.60;28.10;;;;;;;2.62;76.89;100672.91;3168466;28;20044;-69
2022/12/30 04:52:46;;;;;;;54.88;27.02;;;;;;;2.55;77.03;100666.91;3165851;28;20108;-68
2022/12/30 04:54:18;;;;;;;63.35;27.98;;;;;;;2.39;76.93;100647.16;3171044;28;20478;-69
2022/12/30 04:55:52;;;;;;;59.72;27.77;;;;;;;2.60;77.06;100678.03;3166673;28;20047;-69
2022/12/30 04:57:24;;;;;;;65.10;29.02;;;;;;;2.57;76.98;100674.59;3167447;28;20048;-69
2022/12/30 04:58:55;;;;;;;57.47;27.63;;;;;;;2.60;76.86;100680.59;3169325;27;20393;-68
2022/12/30 05:00:27;;;;;;;60.35;26.88;;;;;;;2.44;76.72;100655.75;3158969;28;20100;-69
2022/12/30 05:02:00;;;;;;;62.13;27.60;;;;;;;2.62;76.87;100686.63;3168630;28;20067;-69
2022/12/30 05:03:32;;;;;;;62.25;27.17;;;;;;;2.21;76.67;100632.56;3160809;28;20055;-70
2022/12/30 05:05:03;;;;;;;66.15;28.27;;;;;;;2.63;76.80;100690.94;3171408;28;20100;-68
2022/12/30 05:06:37;;;;;;;63.08;28.55;;;;;;;2.61;76.82;100687.47;3171125;28;20467;-68
2022/12/30 05:08:09;;;;;;;57.63;26.33;;;;;;;2.60;76.75;100687.47;3170938;28;20120;-67
2022/12/30 05:09:40;;;;;;;57.05;27.65;;;;;;;2.41;76.70;100666.03;3149653;28;20513;-69
2022/12/30 05:11:12;;;;;;;63.60;27.92;;;;;;;2.55;76.94;100687.47;3158631;28;20056;-68
2022/12/30 05:12:44;;;;;;;60.58;28.70;;;;;;;2.53;76.98;100684.03;3158652;28;20048;-69
2022/12/30 05:14:15;;;;;;;62.50;29.08;;;;;;;2.49;77.26;100695.19;3169222;28;20440;-69
2022/12/30 05:15:47;;;;;;;63.08;29.92;;;;;;;2.44;77.31;100695.16;3161359;28;20051;-69
2022/12/30 05:17:19;;;;;;;64.35;29.90;;;;;;;2.39;77.19;100690.84;3164764;28;20073;-70
2022/12/30 05:18:49;;;;;;;64.25;29.17;;;;;;;2.44;77.24;100692.59;3161919;28;20055;-69
2022/12/30 05:20:22;;;;;;;63.00;29.50;;;;;;;2.39;77.27;100694.28;3163986;28;20802;-69
2022/12/30 05:21:54;;;;;;;64.55;29.08;;;;;;;2.42;77.30;100696.84;3158546;28;20116;-69
2022/12/30 05:27:05;;;;;;;65.22;29.42;;;;;;;2.42;77.45;100711.44;3170438;28;20398;-69
2022/12/30 05:28:37;;;;;;;62.85;29.65;;;;;;;2.34;77.37;100692.56;3162676;28;20101;-70
2022/12/30 05:30:10;;;;;;;69.03;30.50;;;;;;;2.41;77.28;100702.00;3166178;28;20078;-69
2022/12/30 05:31:42;;;;;;;58.35;28.70;;;;;;;2.40;77.23;100700.31;3163735;28;20052;-70
2022/12/30 05:33:14;;;;;;;61.65;29.60;;;;;;;2.29;77.26;100687.41;3158772;28;20046;-69
2022/12/30 05:34:46;;;;;;;62.15;29.77;;;;;;;2.32;77.29;100691.72;3158345;28;20052;-69
2022/12/30 05:36:18;;;;;;;61.95;29.58;;;;;;;2.24;77.52;100695.09;3163440;28;20116;-69
2022/12/30 05:37:51;;;;;;;68.93;31.42;;;;;;;2.28;77.65;100708.84;3160426;28;20047;-70
2022/12/30 05:39:23;;;;;;;67.97;32.20;;;;;;;2.24;77.76;100715.66;3162004;28;20051;-70
2022/12/30 05:40:55;;;;;;;65.20;31.48;;;;;;;2.21;77.78;100707.09;3158993;28;20052;-68
2022/12/30 05:42:27;;;;;;;68.97;31.55;;;;;;;2.19;77.93;100706.22;3160162;28;20052;-69
2022/12/30 05:43:58;;;;;;;67.68;31.55;;;;;;;2.15;77.91;100720.75;3164293;28;20044;-69
2022/12/30 05:45:30;;;;;;;62.45;29.35;;;;;;;2.12;78.23;100707.06;3158178;28;20082;-69
2022/12/30 05:47:02;;;;;;;68.63;30.52;;;;;;;2.08;78.30;100706.19;3158185;28;20052;-69
2022/12/30 05:48:33;;;;;;;78.15;32.17;;;;;;;2.03;78.38;100713.00;3158115;28;20069;-68
2022/12/30 05:50:05;;;;;;;69.97;31.63;;;;;;;2.00;78.49;100718.13;3169457;28;20071;-68
2022/12/30 05:51:37;;;;;;;66.40;28.52;;;;;;;1.92;78.42;100705.25;3160056;28;20398;-69
2022/12/30 05:53:10;;;;;;;66.43;28.65;;;;;;;1.93;78.63;100709.56;3158102;28;20048;-69
2022/12/30 05:54:42;;;;;;;69.38;27.85;;;;;;;1.89;78.81;100717.22;3158058;28;20509;-69
2022/12/30 05:56:14;;;;;;;62.03;28.13;;;;;;;1.85;78.89;100718.94;3166796;28;20040;-70
2022/12/30 05:57:46;;;;;;;61.63;28.55;;;;;;;1.84;78.90;100712.06;3158468;28;20044;-69
2022/12/30 05:59:17;;;;;;;66.20;27.85;;;;;;;1.85;78.93;100718.06;3162898;28;20124;-69
2022/12/30 06:00:48;;;;;;;58.75;27.52;;;;;;;1.79;78.90;100708.63;3164100;28;20052;-69
2022/12/30 06:02:20;;;;;;;62.38;27.27;;;;;;;1.86;79.02;100715.50;3163548;28;20044;-70
2022/12/30 06:03:55;;;;;;;59.83;28.42;;;;;;;1.86;78.87;100704.38;3170808;27;20148;-70
2022/12/30 06:05:26;;;;;;;58.80;27.63;;;;;;;1.92;78.68;100710.38;3170659;28;20449;-68
2022/12/30 06:06:58;;;;;;;58.25;26.17;;;;;;;1.87;78.76;100696.69;3170582;28;20051;-69
2022/12/30 06:08:32;;;;;;;57.05;26.20;;;;;;;1.97;78.56;100708.69;3163418;28;20052;-69
2022/12/30 06:10:05;;;;;;;58.08;25.42;;;;;;;1.99;78.69;100717.28;3160821;28;20066;-69
2022/12/30 06:11:37;;;;;;;60.58;27.40;;;;;;;2.01;78.56;100720.72;3170524;28;20051;-68
2022/12/30 06:13:08;;;;;;;58.38;25.98;;;;;;;2.02;78.65;100714.72;3169171;28;20051;-68
2022/12/30 06:14:40;;;;;;;66.80;26.80;;;;;;;1.60;78.46;100646.06;3147702;28;20566;-68
2022/12/30 06:16:12;;;;;;;55.58;26.30;;;;;;;2.07;78.40;100721.59;3157903;28;20525;-69
2022/12/30 06:17:44;;;;;;;58.95;24.60;;;;;;;2.08;78.47;100724.19;3158034;28;20097;-69
2022/12/30 06:19:16;;;;;;;56.33;25.40;;;;;;;2.11;78.55;100731.03;3158054;28;20142;-69
2022/12/30 06:20:48;;;;;;;57.38;26.80;;;;;;;2.13;78.41;100726.75;3157786;28;20048;-68
2022/12/30 06:22:20;;;;;;;57.08;24.42;;;;;;;2.18;78.37;100732.78;3157603;28;20047;-69
2022/12/30 06:23:53;;;;;;;54.42;25.45;;;;;;;2.25;78.45;100719.09;3157608;28;20128;-68
2022/12/30 06:25:25;;;;;;;61.10;26.13;;;;;;;2.34;78.22;100725.97;3166858;28;20044;-69
2022/12/30 06:26:57;;;;;;;59.95;25.73;;;;;;;2.40;78.24;100720.88;3161500;28;20048;-69
2022/12/30 06:28:30;;;;;;;58.55;25.30;;;;;;;2.46;77.98;100719.16;3165497;28;20052;-69
2022/12/30 06:30:02;;;;;;;57.10;25.98;;;;;;;2.59;77.96;100732.06;3162996;28;20056;-69
2022/12/30 06:31:34;;;;;;;59.47;25.50;;;;;;;2.65;77.80;100726.91;3163610;28;20051;-69
2022/12/30 06:33:06;;;;;;;56.28;24.67;;;;;;;2.64;77.80;100723.50;3164738;28;20043;-69
2022/12/30 06:34:38;;;;;;;52.85;24.88;;;;;;;2.74;77.63;100727.78;3157575;28;20105;-69
2022/12/30 06:36:10;;;;;;;51.42;22.67;;;;;;;2.79;77.64;100721.81;3157208;28;20056;-69
2022/12/30 06:37:42;;;;;;;50.78;23.83;;;;;;;2.84;77.37;100720.06;3155721;28;20062;-68
2022/12/30 06:39:15;;;;;;;64.82;27.67;;;;;;;2.94;77.26;100735.53;3170286;28;20217;-68
2022/12/30 06:40:48;;;;;;;60.75;26.73;;;;;;;3.04;77.18;100735.53;3161931;28;20184;-68
2022/12/30 06:42:20;;;;;;;65.67;25.63;;;;;;;2.97;77.23;100707.22;3170180;28;20051;-69
2022/12/30 06:43:52;;;;;;;53.95;24.45;;;;;;;3.26;77.01;100747.56;3166938;28;20054;-69
2022/12/30 06:45:22;;;;;;;59.78;25.08;;;;;;;3.32;76.79;100741.56;3170117;28;20051;-69
2022/12/30 06:46:54;;;;;;;52.55;23.38;;;;;;;3.45;76.56;100757.84;3157965;28;20153;-69
2022/12/30 06:48:26;;;;;;;47.35;22.73;;;;;;;3.46;76.35;100755.28;3157595;28;20063;-69
2022/12/30 06:49:58;;;;;;;52.53;24.70;;;;;;;3.57;76.11;100760.41;3157830;28;20056;-69
2022/12/30 06:51:30;;;;;;;58.20;24.60;;;;;;;3.62;75.79;100758.69;3156134;28;20044;-69
2022/12/30 06:53:02;;;;;;;68.97;26.38;;;;;;;3.68;75.68;100757.84;3157601;28;20067;-69
2022/12/30 06:54:35;;;;;;;68.50;27.50;;;;;;;3.75;75.58;100754.38;3164919;28;20104;-69
2022/12/30 06:56:07;;;;;;;;;;;;;;;3.79;75.45;100756.94;3163316;28;20125;-68
2022/12/30 06:57:39;;;;;;;49.60;24.85;;;;;;;3.66;75.33;100729.50;3157246;28;20016;-68
2022/12/30 06:59:11;;;;;;;63.38;26.85;;;;;;;3.99;75.21;100748.28;3154181;28;20044;-68
2022/12/30 07:00:43;;;;;;;59.40;27.13;;;;;;;4.21;74.94;100755.09;3156575;28;20627;-69
2022/12/30 07:02:15;;;;;;;57.42;26.08;;;;;;;4.40;74.57;100761.03;3161203;28;20063;-68
2022/12/30 07:03:47;;;;;;;60.65;25.60;;;;;;;4.58;74.20;100762.66;3169994;28;20050;-68
2022/12/30 07:05:18;;;;;;;56.75;24.38;;;;;;;4.73;73.77;100760.03;3169853;28;20358;-68
2022/12/30 07:06:50;;;;;;;50.60;23.80;;;;;;;4.90;73.66;100761.63;3165299;28;20212;-68
2022/12/30 07:08:21;;;;;;;51.80;24.98;;;;;;;4.96;73.08;100749.53;3170193;27;20080;-68
2022/12/30 07:09:55;;;;;;;55.88;25.00;;;;;;;5.18;72.75;100768.31;3166219;28;20055;-68
2022/12/30 07:11:26;;;;;;;50.72;24.50;;;;;;;5.20;72.26;100753.66;3144837;28;20052;-68
2022/12/30 07:12:57;;;;;;;59.20;23.52;;;;;;;5.36;71.75;100767.31;3156963;28;20052;-69
2022/12/30 07:14:29;;;;;;;48.42;22.95;;;;;;;5.42;71.30;100751.75;3168720;28;20128;-68
2022/12/30 07:16:01;;;;;;;44.25;22.08;;;;;;;5.55;70.99;100756.81;3158969;28;20436;-68
2022/12/30 07:17:33;;;;;;;47.10;21.95;;;;;;;5.63;70.50;100761.03;3157174;28;20047;-68
2022/12/30 07:19:05;;;;;;;46.30;22.55;;;;;;;5.77;70.21;100755.75;3166141;28;20044;-68
2022/12/30 07:20:37;;;;;;;46.63;21.67;;;;;;;6.12;69.63;100759.69;3161302;28;20054;-68
2022/12/30 07:22:09;;;;;;;50.67;21.92;;;;;;;6.35;68.74;100767.19;3156873;28;20047;-68
2022/12/30 07:23:40;;;;;;;51.15;21.58;;;;;;;6.52;68.20;100770.41;3156806;28;20047;-68
2022/12/30 07:25:14;;;;;;;44.72;21.25;;;;;;;6.72;68.00;100769.31;3162998;28;20043;-68
2022/12/30 07:26:45;;;;;;;48.05;22.42;;;;;;;6.90;67.48;100771.63;3162565;28;20067;-68
2022/12/30 07:28:17;;;;;;;46.85;21.17;;;;;;;7.07;67.04;100772.25;3161672;28;20108;-68
2022/12/30 07:29:49;;;;;;;45.50;20.52;;;;;;;7.18;66.42;100766.88;3169457;28;20043;-68
2022/12/30 07:31:21;;;;;;;52.53;22.55;;;;;;;7.29;65.88;100770.16;3169872;28;20257;-68
2022/12/30 07:32:53;;;;;;;43.75;21.77;;;;;;;7.49;65.58;100768.97;3165346;28;20093;-68
2022/12/30 07:34:26;;;;;;;47.55;21.48;;;;;;;7.66;64.58;100760.88;3169008;28;20055;-68
2022/12/30 07:35:57;;;;;;;43.50;21.25;;;;;;;7.87;63.89;100775.22;3165879;28;20048;-68
2022/12/30 07:37:29;;;;;;;39.20;20.60;;;;;;;8.02;63.56;100771.50;3161860;28;20468;-69
2022/12/30 07:39:01;;;;;;;42.92;21.25;;;;;;;8.24;63.41;100770.16;3157241;28;20459;-69
2022/12/30 07:40:36;;;;;;;48.78;24.40;;;;;;;8.24;61.99;100740.78;3157059;28;20058;-69
2022/12/30 07:42:08;;;;;;;61.28;26.15;;;;;;;8.71;62.17;100775.28;3169668;28;20086;-69
2022/12/30 07:43:40;;;;;;;46.25;21.83;;;;;;;8.95;61.78;100768.69;3153917;28;20048;-69
2022/12/30 07:45:12;;;;;;;51.83;23.13;;;;;;;9.25;61.18;100775.75;3155495;28;20059;-68
2022/12/30 07:46:44;;;;;;;47.20;23.25;;;;;;;9.51;60.51;100774.28;3167553;28;20112;-69
2022/12/30 07:48:16;;;;;;;41.83;20.58;;;;;;;9.77;59.83;100769.25;3160207;28;20052;-69
2022/12/30 07:49:47;;;;;;;48.15;23.42;;;;;;;10.05;59.16;100772.84;3156693;28;20055;-69
2022/12/30 07:51:20;;;;;;;41.33;21.60;;;;;;;10.38;58.67;100776.28;3161026;28;20136;-69
2022/12/30 07:52:51;;;;;;;41.40;21.23;;;;;;;10.64;57.81;100762.50;3156797;28;20530;-69
2022/12/30 07:54:23;;;;;;;38.55;21.20;;;;;;;10.95;57.66;100769.41;3157341;28;20193;-69
2022/12/30 07:55:57;;;;;;;47.45;21.60;;;;;;;11.27;56.87;100779.66;3156699;28;20060;-69
2022/12/30 07:57:29;;;;;;;;;;;;;;;11.66;57.40;100775.78;3157196;28;20056;-69
2022/12/30 07:59:02;;;;;;;43.53;21.70;;;;;;;11.84;56.42;100762.94;3154351;28;19920;-69
2022/12/30 08:00:34;;;;;;;43.20;22.42;;;;;;;11.87;55.44;100717.66;3156756;28;20155;-69
2022/12/30 08:02:06;;;;;;;32.35;17.50;;;;;;;12.32;53.88;100769.09;3160243;28;20412;-68